Time;durP1;ratioP1;P1;durP2;ratioP2;P2;SDS_P1;SDS_P2;PMS_P1;PMS_P2;Temp;Humidity;BMP_temperature;BMP_pressure;BME280_temperature;BME280_humidity;BME280_pressure;Samples;Min_cycle;Max_cycle;Signal;HPM_P1;HPM_P2
2021/11/04 00:06:34;;;;;;;10.8;13.6;;;;;;;9.2;77.2;97820;;;;
2021/11/04 00:16:34;;;;;;;10.8;13.6;;;;;;;8.9;78.4;97800;;;;
2021/11/04 00:26:34;;;;;;;10.8;13.6;;;;;;;8.8;78.5;97770;;;;
2021/11/04 00:36:35;;;;;;;12.2;15.8;;;;;;;8.5;79;97770;;;;
2021/11/04 00:46:34;;;;;;;12.2;15.8;;;;;;;8.5;78.7;97770;;;;
2021/11/04 00:56:35;;;;;;;12.2;15.8;;;;;;;8.4;78.5;97740;;;;
2021/11/04 01:06:35;;;;;;;10;13.5;;;;;;;8.3;78.6;97730;;;;
2021/11/04 01:16:35;;;;;;;10;13.5;;;;;;;8.2;78.7;97720;;;;
2021/11/04 01:26:34;;;;;;;10;13.5;;;;;;;8;79.4;97690;;;;
2021/11/04 01:36:34;;;;;;;10.5;15.8;;;;;;;7.8;80.6;97690;;;;
2021/11/04 01:46:35;;;;;;;10.5;15.8;;;;;;;7.9;80.7;97700;;;;
2021/11/04 01:56:34;;;;;;;10.5;15.8;;;;;;;8;80.9;97690;;;;
2021/11/04 02:06:34;;;;;;;10.2;14.4;;;;;;;8;81.1;97660;;;;
2021/11/04 02:16:35;;;;;;;10.2;14.4;;;;;;;8;81.7;97650;;;;
2021/11/04 02:26:35;;;;;;;10.2;14.4;;;;;;;8.1;82.1;97650;;;;
2021/11/04 02:36:34;;;;;;;9.4;12.8;;;;;;;8.1;82.2;97620;;;;
2021/11/04 02:46:34;;;;;;;9.4;12.8;;;;;;;8.3;81.7;97610;;;;
2021/11/04 02:56:34;;;;;;;9.4;12.8;;;;;;;8.3;82;97610;;;;
2021/11/04 03:07:35;;;;;;;8.4;10.5;;;;;;;8.4;81.7;97600;;;;
2021/11/04 03:17:34;;;;;;;8.4;10.5;;;;;;;8.3;82.2;97580;;;;
2021/11/04 03:27:35;;;;;;;8.4;10.5;;;;;;;8.4;82;97570;;;;
2021/11/04 03:37:34;;;;;;;7.9;11.8;;;;;;;8.4;81.4;97580;;;;
2021/11/04 03:48:34;;;;;;;7.9;11.8;;;;;;;8.3;81.9;97560;;;;
2021/11/04 03:58:34;;;;;;;7.9;11.8;;;;;;;8.4;81.3;97560;;;;
2021/11/04 04:08:34;;;;;;;7.8;10.2;;;;;;;8.5;81.2;97550;;;;
2021/11/04 04:18:35;;;;;;;7.8;10.2;;;;;;;8.5;80.5;97530;;;;
2021/11/04 04:28:35;;;;;;;7.8;10.2;;;;;;;8.4;80.4;97530;;;;
2021/11/04 04:38:35;;;;;;;8.6;11.6;;;;;;;8.3;81.6;97500;;;;
2021/11/04 04:48:35;;;;;;;8.6;11.6;;;;;;;8.5;81.4;97510;;;;
2021/11/04 04:58:35;;;;;;;8.6;11.6;;;;;;;8.7;80.6;97490;;;;
2021/11/04 05:08:35;;;;;;;7.7;12;;;;;;;8.4;81.2;97470;;;;
2021/11/04 05:18:35;;;;;;;7.7;12;;;;;;;8.4;80.8;97470;;;;
2021/11/04 05:28:36;;;;;;;7.7;12;;;;;;;8.5;80.6;97450;;;;
2021/11/04 05:38:35;;;;;;;8.8;12;;;;;;;8.3;80.9;97400;;;;
2021/11/04 05:48:35;;;;;;;8.8;12;;;;;;;8.3;81.4;97380;;;;
2021/11/04 05:58:37;;;;;;;8.8;12;;;;;;;8.3;81.6;97360;;;;
2021/11/04 06:08:35;;;;;;;7.7;11.1;;;;;;;8.4;81.4;97360;;;;
2021/11/04 06:18:35;;;;;;;7.7;11.1;;;;;;;8.6;80.9;97350;;;;
2021/11/04 06:28:35;;;;;;;7.7;11.1;;;;;;;8.7;80.9;97350;;;;
2021/11/04 06:38:35;;;;;;;8.2;13;;;;;;;8.9;80.8;97360;;;;
2021/11/04 06:48:35;;;;;;;8.2;13;;;;;;;9.2;80.2;97340;;;;
2021/11/04 06:58:35;;;;;;;8.2;13;;;;;;;9.5;79.3;97340;;;;
2021/11/04 07:08:40;;;;;;;6.2;10.7;;;;;;;9.7;78.6;97360;;;;
2021/11/04 07:18:35;;;;;;;6.2;10.7;;;;;;;9.7;78.2;97350;;;;
2021/11/04 07:28:35;;;;;;;6.2;10.7;;;;;;;9.8;78.5;97360;;;;
2021/11/04 07:38:35;;;;;;;6.5;8;;;;;;;10.1;78.2;97350;;;;
2021/11/04 07:49:35;;;;;;;6.5;8;;;;;;;10.2;78.1;97340;;;;
2021/11/04 07:59:35;;;;;;;6.5;8;;;;;;;10.1;78.4;97310;;;;
2021/11/04 08:09:35;;;;;;;6.1;8.8;;;;;;;10.4;78.1;97270;;;;
2021/11/04 08:19:35;;;;;;;6.1;8.8;;;;;;;10.9;78.4;97310;;;;
2021/11/04 08:29:35;;;;;;;6.1;8.8;;;;;;;11.2;76.7;97290;;;;
2021/11/04 08:39:35;;;;;;;7.2;11.9;;;;;;;11.2;76.9;97260;;;;
2021/11/04 08:50:35;;;;;;;7.2;11.9;;;;;;;11.7;75.9;97240;;;;
2021/11/04 09:00:35;;;;;;;7.2;11.9;;;;;;;12.5;74.8;97200;;;;
2021/11/04 09:10:35;;;;;;;7.5;11.1;;;;;;;13.1;72.2;97240;;;;
2021/11/04 09:20:35;;;;;;;7.5;11.1;;;;;;;13.5;70.9;97230;;;;
2021/11/04 09:31:35;;;;;;;5.6;9.6;;;;;;;14;69.3;97200;;;;
2021/11/04 09:42:35;;;;;;;5.6;9.6;;;;;;;14.7;68;97200;;;;
2021/11/04 09:53:35;;;;;;;5.6;9.6;;;;;;;15.2;66.2;97180;;;;
2021/11/04 10:03:35;;;;;;;4.7;10.4;;;;;;;15.3;65.5;97190;;;;
2021/11/04 10:14:36;;;;;;;4.7;10.4;;;;;;;15.9;64.8;97220;;;;
2021/11/04 10:25:35;;;;;;;4.7;10.4;;;;;;;16.1;63.8;97220;;;;
2021/11/04 10:35:35;;;;;;;4.1;7.3;;;;;;;16.3;62.9;97190;;;;
2021/11/04 10:45:35;;;;;;;4.1;7.3;;;;;;;16.3;63.9;97210;;;;
2021/11/04 10:55:35;;;;;;;4.1;7.3;;;;;;;16.2;63;97210;;;;
2021/11/04 11:05:35;;;;;;;3.1;6.2;;;;;;;16.2;63.1;97170;;;;
2021/11/04 11:15:35;;;;;;;3.1;6.2;;;;;;;16.3;62.7;97180;;;;
2021/11/04 11:25:35;;;;;;;3.1;6.2;;;;;;;16.2;62.2;97200;;;;
2021/11/04 11:35:35;;;;;;;3.1;5.7;;;;;;;16.6;62.4;97200;;;;
2021/11/04 11:45:35;;;;;;;3.1;5.7;;;;;;;17;62.2;97200;;;;
2021/11/04 11:55:35;;;;;;;3.1;5.7;;;;;;;17.1;62;97180;;;;
2021/11/04 12:05:35;;;;;;;3.2;6.6;;;;;;;17.1;62.9;97210;;;;
2021/11/04 12:16:35;;;;;;;3.2;6.6;;;;;;;17.5;60.9;97190;;;;
2021/11/04 12:26:35;;;;;;;3.2;6.6;;;;;;;18.2;60.9;97230;;;;
2021/11/04 12:37:35;;;;;;;2.7;6.2;;;;;;;19.2;53.7;97220;;;;
2021/11/04 12:47:35;;;;;;;2.7;6.2;;;;;;;19.3;52;97230;;;;
2021/11/04 12:57:35;;;;;;;2.7;6.2;;;;;;;19.3;51.7;97250;;;;
2021/11/04 13:07:36;;;;;;;1.4;2.8;;;;;;;19.7;50.7;97270;;;;
2021/11/04 13:17:35;;;;;;;1.4;2.8;;;;;;;19.3;52.8;97260;;;;
2021/11/04 13:27:35;;;;;;;1.4;2.8;;;;;;;18.9;51.9;97300;;;;
2021/11/04 13:37:35;;;;;;;0.8;2.5;;;;;;;18.8;49.1;97320;;;;
2021/11/04 13:47:35;;;;;;;0.8;2.5;;;;;;;18.5;48.3;97340;;;;
2021/11/04 13:57:35;;;;;;;0.8;2.5;;;;;;;18.2;47.5;97360;;;;
2021/11/04 14:07:35;;;;;;;1.4;5.8;;;;;;;17.9;47.7;97370;;;;
2021/11/04 14:17:35;;;;;;;1.4;5.8;;;;;;;17.7;48.4;97400;;;;
2021/11/04 14:27:35;;;;;;;1.4;5.8;;;;;;;16.5;58.9;97480;;;;
2021/11/04 14:37:35;;;;;;;1.4;2.7;;;;;;;15.3;63.4;97500;;;;
2021/11/04 14:47:37;;;;;;;1.4;2.7;;;;;;;14.7;64.7;97530;;;;
2021/11/04 14:57:35;;;;;;;1.4;2.7;;;;;;;14;66.1;97540;;;;
2021/11/04 15:07:35;;;;;;;3.9;7.9;;;;;;;13.3;66.9;97550;;;;
2021/11/04 15:17:35;;;;;;;3.9;7.9;;;;;;;12.8;67.6;97580;;;;
2021/11/04 15:27:35;;;;;;;3.9;7.9;;;;;;;12.6;67.7;97590;;;;
2021/11/04 15:37:35;;;;;;;4.2;8.3;;;;;;;12.4;67.8;97620;;;;
2021/11/04 15:47:37;;;;;;;4.2;8.3;;;;;;;12.2;68.1;97630;;;;
2021/11/04 15:57:35;;;;;;;4.2;8.3;;;;;;;12.2;68.1;97650;;;;
2021/11/04 16:07:35;;;;;;;5.3;9;;;;;;;12.3;67.8;97670;;;;
2021/11/04 16:17:35;;;;;;;5.3;9;;;;;;;12.4;67;97680;;;;
2021/11/04 16:27:35;;;;;;;5.3;9;;;;;;;12.2;66.7;97700;;;;
2021/11/04 16:37:35;;;;;;;4.8;10.7;;;;;;;12.7;62.9;97730;;;;
2021/11/04 16:47:35;;;;;;;4.8;10.7;;;;;;;12.9;60.5;97770;;;;
2021/11/04 16:57:35;;;;;;;4.8;10.7;;;;;;;12.7;60.1;97800;;;;
2021/11/04 17:07:35;;;;;;;2.9;7.4;;;;;;;12.1;61.1;97810;;;;
2021/11/04 17:17:35;;;;;;;2.9;7.4;;;;;;;11.5;61.8;97830;;;;
2021/11/04 17:27:35;;;;;;;2.9;7.4;;;;;;;11.1;62.3;97850;;;;
2021/11/04 17:37:35;;;;;;;6.4;10.4;;;;;;;10.7;63.6;97860;;;;
2021/11/04 17:47:35;;;;;;;6.4;10.4;;;;;;;10.2;64.4;97880;;;;
2021/11/04 17:57:35;;;;;;;6.4;10.4;;;;;;;10;64.5;97880;;;;
2021/11/04 18:07:35;;;;;;;5.8;12.5;;;;;;;10.1;62.5;97900;;;;
2021/11/04 18:17:35;;;;;;;5.8;12.5;;;;;;;10.2;60.8;97900;;;;
2021/11/04 18:27:35;;;;;;;5.8;12.5;;;;;;;10.6;57.2;97900;;;;
2021/11/04 18:38:35;;;;;;;4.3;7.6;;;;;;;10.6;54.8;97920;;;;
2021/11/04 18:49:35;;;;;;;4.3;7.6;;;;;;;11;53.6;97940;;;;
2021/11/04 18:59:35;;;;;;;4.3;7.6;;;;;;;10.9;55.6;97970;;;;
2021/11/04 19:10:35;;;;;;;3.4;8.5;;;;;;;10.1;59.2;98000;;;;
2021/11/04 19:20:35;;;;;;;3.4;8.5;;;;;;;9.8;59;98010;;;;
2021/11/04 19:31:35;;;;;;;5.3;6.9;;;;;;;10;57.7;98030;;;;
2021/11/04 19:41:35;;;;;;;5.3;6.9;;;;;;;9.7;58.9;98020;;;;
2021/11/04 19:51:35;;;;;;;5.3;6.9;;;;;;;9.7;58.6;98030;;;;
2021/11/04 20:01:35;;;;;;;6.4;10.5;;;;;;;9.5;59;98030;;;;
2021/11/04 20:11:35;;;;;;;6.4;10.5;;;;;;;9;60.3;98030;;;;
2021/11/04 20:21:35;;;;;;;6.4;10.5;;;;;;;8.9;60.2;98040;;;;
2021/11/04 20:31:35;;;;;;;4.3;7.5;;;;;;;8.7;59.5;98070;;;;
2021/11/04 20:41:35;;;;;;;4.3;7.5;;;;;;;8.4;61;98090;;;;
2021/11/04 20:51:35;;;;;;;4.3;7.5;;;;;;;8.1;62.3;98110;;;;
2021/11/04 21:01:35;;;;;;;5.7;9.4;;;;;;;7.8;63.1;98120;;;;
2021/11/04 21:11:35;;;;;;;5.7;9.4;;;;;;;7.8;62.9;98140;;;;
2021/11/04 21:21:35;;;;;;;5.7;9.4;;;;;;;7.8;63.8;98160;;;;
2021/11/04 21:31:35;;;;;;;4.7;8.5;;;;;;;7.7;64;98160;;;;
2021/11/04 21:41:35;;;;;;;4.7;8.5;;;;;;;7.6;64.6;98170;;;;
2021/11/04 21:51:36;;;;;;;4.7;8.5;;;;;;;7.9;65.4;98190;;;;
2021/11/04 22:01:35;;;;;;;5.8;9.3;;;;;;;7.7;65.8;98220;;;;
2021/11/04 22:11:35;;;;;;;5.8;9.3;;;;;;;7.6;67.1;98230;;;;
2021/11/04 22:21:35;;;;;;;5.8;9.3;;;;;;;7.9;66.8;98270;;;;
2021/11/04 22:31:35;;;;;;;3.4;6.9;;;;;;;8.1;65.4;98280;;;;
2021/11/04 22:41:35;;;;;;;3.4;6.9;;;;;;;8.2;63.7;98290;;;;
2021/11/04 22:51:35;;;;;;;3.4;6.9;;;;;;;8.4;61.3;98300;;;;
2021/11/04 23:01:35;;;;;;;1.1;2.6;;;;;;;8.6;59.4;98300;;;;
2021/11/04 23:11:35;;;;;;;1.1;2.6;;;;;;;8.7;58.7;98320;;;;
2021/11/04 23:21:35;;;;;;;1.1;2.6;;;;;;;8.6;60.1;98340;;;;
2021/11/04 23:31:35;;;;;;;1.4;3.8;;;;;;;8.4;60.5;98350;;;;
2021/11/04 23:41:35;;;;;;;1.4;3.8;;;;;;;8.1;61.5;98340;;;;
2021/11/04 23:51:35;;;;;;;1.4;3.8;;;;;;;8;61.3;98330;;;;
